Historyczne dane pomiarowe

Dodano dane terminowe – wersja testowa.

Dane z okresu 1951-2018

Wersja bazy: 1.27 [2018-11-28, lista zmian], aktualizacja planowana na 2018-12-07

Dane meteo z obszaru Polski uzyskane na podstawie danych udostępnionych przez Instytut Meteorologii i Gospodarki Wodnej – Państwowy Instytut Badawczy.

 

Wybierz Datę:    

       

TemperaturaWilgotnośćWiatrCiśnienieOpadyŚniegCzas trwania zjawisk
 Stacja t tx tn tng RH VA  wxwx mslp ppp RRR   cm mm wxwxwxwxwxwxwx
1959-11-08 5.4 6.7 4.7 4.8 97.5- 8.0 1.7---- 5.3------------
1959-11-09 5.9 6.6 4.4 4.3 97.0- 8.0 3.7---- 2.3------------
1959-11-10 5.9 9.5 4.9 4.6 93.3- 7.3 1.7---- 4.0------------
1959-11-11 5.6 6.7 4.3 4.1 92.8- 8.0 1.0---- 0.4------------
1959-11-12 4.6 5.9 4.2 1.9 98.3- 8.0 1.7---- 1.7------------
1959-11-13 4.7 6.5 2.1 1.9 91.5- 7.7 3.3---- 0.0------------
1959-11-14 5.7 8.1 4.4 4.1 79.0- 8.0 7.0---- 0.0------------
1959-11-15 1.0 4.7 -0.4 -0.3 73.3- 3.0 6.3---- 0.0------------
1959-11-16 -2.2 -0.4 -3.0 -4.9 81.8- 8.0 6.7---- 1.0------------
1959-11-17 -1.9 -1.3 -3.5 -3.9 91.5- 8.0 3.0---- 0.2-- 1---------
1959-11-18 0.0 0.9 -2.0 -2.6 95.3- 8.0 5.3---- 0.0-- 1---------
1959-11-19 1.6 2.0 0.0 -0.7 92.3- 8.0 5.0---- 1.8------------
1959-11-20 2.5 3.4 1.5 1.1 99.3- 8.0 1.0---- 0.1------------
1959-11-21 -1.9 2.7 -4.2 -0.2 86.5- 5.3 3.0---- 0.0------------
1959-11-22 -3.2 2.5 -6.7 -9.6 76.8- 0.3 2.0---- 0.0------------
1959-11-23 -2.5 1.4 -8.2-11.4 86.3- 6.0 2.7---- 0.0------------
1959-11-24 0.2 2.2 -4.1 -8.0 82.3- 4.3 2.0---- 0.0------------
1959-11-25 -0.1 6.2 -2.2 -6.4 77.0- 2.3 1.3---- 0.0------------
1959-11-26 -4.6 0.0 -8.1-12.0 94.5- 4.0 1.7---- 0.0------------
1959-11-27 0.2 1.9 -5.2 -5.2 86.3- 8.0 4.7---- 0.0------------
1959-11-28 0.2 2.3 -1.7 -3.9 82.3- 4.0 4.7---- 0.0------------
1959-11-29 2.6 4.0 -1.1 -3.3 95.3- 8.0 2.0---- 0.4------------
1959-11-30 2.0 4.4 0.3 -1.1 95.3- 5.3 2.0---- 0.0------------
1959-12-01 2.0 3.2 -0.4 -2.1 96.8- 8.0 4.3---- 2.0------------
1959-12-02 3.6 4.4 2.0 0.6100.0- 8.0 2.3---- 1.4------------
1959-12-03 5.1 8.6 2.9 0.6 98.5- 6.7 1.0---- 0.0------------
1959-12-04 1.3 4.2 -0.4 2.3100.0- 8.0 5.3---- 4.9------------
1959-12-05 -7.9 -0.4-11.0 -9.9 76.5- 8.0 7.7---- 0.1------------
1959-12-06-15.9-10.4-17.1-17.5 75.3- 3.3 7.0---- 0.0------------
1959-12-07-15.7-13.8-20.0-18.8 75.8- 6.7 8.7---- 0.0------------
107.4 ms

 

Źródłem pochodzenia danych jest Instytut Meteorologii i Gospodarki Wodnej – Państwowy Instytut Badawczy. Dane Instytutu Meteorologii i Gospodarki Wodnej – Państwowego Instytutu Badawczego zostały przetworzone.

Dane źródłowe można odnaleźć na stronie https://dane.imgw.pl